sensor_id;sensor_type;location;lat;lon;timestamp;P1;durP1;ratioP1;P2;durP2;ratioP2
17763;SDS011;22245;52.832;13.816;2023-11-19T00:02:03;10.00;;;5.47;;
17763;SDS011;22245;52.832;13.816;2023-11-19T00:05:25;7.93;;;5.13;;
17763;SDS011;22245;52.832;13.816;2023-11-19T00:08:48;7.60;;;5.30;;
17763;SDS011;22245;52.832;13.816;2023-11-19T00:12:10;7.20;;;4.87;;
17763;SDS011;22245;52.832;13.816;2023-11-19T00:15:34;6.87;;;4.73;;
17763;SDS011;22245;52.832;13.816;2023-11-19T00:18:55;8.10;;;5.00;;
17763;SDS011;22245;52.832;13.816;2023-11-19T00:22:17;7.97;;;5.00;;
17763;SDS011;22245;52.832;13.816;2023-11-19T00:25:42;7.73;;;5.17;;
17763;SDS011;22245;52.832;13.816;2023-11-19T00:29:04;8.07;;;5.23;;
17763;SDS011;22245;52.832;13.816;2023-11-19T00:32:27;8.87;;;5.60;;
17763;SDS011;22245;52.832;13.816;2023-11-19T00:35:49;7.87;;;5.27;;
17763;SDS011;22245;52.832;13.816;2023-11-19T00:39:11;8.77;;;5.43;;
17763;SDS011;22245;52.832;13.816;2023-11-19T00:42:36;9.87;;;5.53;;
17763;SDS011;22245;52.832;13.816;2023-11-19T00:47:07;7.60;;;5.20;;
17763;SDS011;22245;52.832;13.816;2023-11-19T00:50:30;9.80;;;5.60;;
17763;SDS011;22245;52.832;13.816;2023-11-19T00:53:57;9.83;;;5.80;;
17763;SDS011;22245;52.832;13.816;2023-11-19T00:57:19;8.37;;;5.60;;
17763;SDS011;22245;52.832;13.816;2023-11-19T01:00:40;8.83;;;6.00;;
17763;SDS011;22245;52.832;13.816;2023-11-19T01:04:03;9.17;;;5.80;;
17763;SDS011;22245;52.832;13.816;2023-11-19T01:07:27;8.73;;;5.93;;
17763;SDS011;22245;52.832;13.816;2023-11-19T01:10:49;8.83;;;6.07;;
17763;SDS011;22245;52.832;13.816;2023-11-19T01:14:10;9.03;;;6.07;;
17763;SDS011;22245;52.832;13.816;2023-11-19T01:17:32;10.87;;;6.60;;
17763;SDS011;22245;52.832;13.816;2023-11-19T01:20:54;9.17;;;5.73;;
17763;SDS011;22245;52.832;13.816;2023-11-19T01:24:17;10.00;;;6.23;;
17763;SDS011;22245;52.832;13.816;2023-11-19T01:27:39;10.10;;;6.23;;
17763;SDS011;22245;52.832;13.816;2023-11-19T01:31:00;11.47;;;6.43;;
17763;SDS011;22245;52.832;13.816;2023-11-19T01:34:23;9.87;;;6.33;;
17763;SDS011;22245;52.832;13.816;2023-11-19T01:37:45;9.37;;;6.13;;
17763;SDS011;22245;52.832;13.816;2023-11-19T01:41:07;9.47;;;6.33;;
17763;SDS011;22245;52.832;13.816;2023-11-19T01:44:29;12.03;;;6.97;;
17763;SDS011;22245;52.832;13.816;2023-11-19T01:47:52;9.87;;;6.47;;
17763;SDS011;22245;52.832;13.816;2023-11-19T01:51:14;10.27;;;5.87;;
17763;SDS011;22245;52.832;13.816;2023-11-19T01:54:37;11.17;;;6.37;;
17763;SDS011;22245;52.832;13.816;2023-11-19T01:58:00;9.87;;;6.37;;
17763;SDS011;22245;52.832;13.816;2023-11-19T02:01:23;11.83;;;7.53;;
17763;SDS011;22245;52.832;13.816;2023-11-19T02:04:45;10.20;;;6.30;;
17763;SDS011;22245;52.832;13.816;2023-11-19T02:08:08;9.37;;;6.20;;
17763;SDS011;22245;52.832;13.816;2023-11-19T02:11:30;12.33;;;6.93;;
17763;SDS011;22245;52.832;13.816;2023-11-19T02:14:53;11.40;;;6.47;;
17763;SDS011;22245;52.832;13.816;2023-11-19T02:18:18;11.83;;;6.80;;
17763;SDS011;22245;52.832;13.816;2023-11-19T02:21:42;9.63;;;6.50;;
17763;SDS011;22245;52.832;13.816;2023-11-19T02:25:04;11.27;;;7.10;;
17763;SDS011;22245;52.832;13.816;2023-11-19T02:28:30;15.20;;;7.03;;
17763;SDS011;22245;52.832;13.816;2023-11-19T02:31:53;9.87;;;6.37;;
17763;SDS011;22245;52.832;13.816;2023-11-19T02:35:16;10.17;;;6.80;;
17763;SDS011;22245;52.832;13.816;2023-11-19T02:38:38;10.27;;;6.30;;
17763;SDS011;22245;52.832;13.816;2023-11-19T02:41:59;10.60;;;6.70;;
17763;SDS011;22245;52.832;13.816;2023-11-19T02:45:22;11.80;;;6.57;;
17763;SDS011;22245;52.832;13.816;2023-11-19T02:48:45;11.27;;;6.73;;
17763;SDS011;22245;52.832;13.816;2023-11-19T02:52:07;10.93;;;6.50;;
17763;SDS011;22245;52.832;13.816;2023-11-19T02:55:30;10.47;;;6.90;;
17763;SDS011;22245;52.832;13.816;2023-11-19T02:58:58;10.37;;;6.63;;
17763;SDS011;22245;52.832;13.816;2023-11-19T03:02:24;12.37;;;7.23;;
17763;SDS011;22245;52.832;13.816;2023-11-19T03:05:54;11.13;;;6.80;;
17763;SDS011;22245;52.832;13.816;2023-11-19T03:09:16;10.80;;;6.47;;
17763;SDS011;22245;52.832;13.816;2023-11-19T03:12:38;10.90;;;7.40;;
17763;SDS011;22245;52.832;13.816;2023-11-19T03:16:00;11.13;;;6.63;;
17763;SDS011;22245;52.832;13.816;2023-11-19T03:19:23;11.07;;;6.87;;
17763;SDS011;22245;52.832;13.816;2023-11-19T03:22:46;10.27;;;6.67;;
17763;SDS011;22245;52.832;13.816;2023-11-19T03:26:08;12.23;;;7.13;;
17763;SDS011;22245;52.832;13.816;2023-11-19T03:29:31;10.57;;;6.47;;
17763;SDS011;22245;52.832;13.816;2023-11-19T03:32:53;11.47;;;6.60;;
17763;SDS011;22245;52.832;13.816;2023-11-19T03:36:16;10.43;;;6.80;;
17763;SDS011;22245;52.832;13.816;2023-11-19T03:39:38;10.10;;;6.63;;
17763;SDS011;22245;52.832;13.816;2023-11-19T03:43:00;11.63;;;6.63;;
17763;SDS011;22245;52.832;13.816;2023-11-19T03:46:21;11.70;;;6.73;;
17763;SDS011;22245;52.832;13.816;2023-11-19T03:49:46;10.63;;;6.73;;
17763;SDS011;22245;52.832;13.816;2023-11-19T03:53:11;11.77;;;6.73;;
17763;SDS011;22245;52.832;13.816;2023-11-19T03:56:33;10.27;;;6.53;;
17763;SDS011;22245;52.832;13.816;2023-11-19T03:59:55;10.77;;;6.50;;
17763;SDS011;22245;52.832;13.816;2023-11-19T04:03:18;9.60;;;5.90;;
17763;SDS011;22245;52.832;13.816;2023-11-19T04:06:40;12.53;;;7.07;;
17763;SDS011;22245;52.832;13.816;2023-11-19T04:10:04;11.40;;;6.97;;
17763;SDS011;22245;52.832;13.816;2023-11-19T04:13:26;10.30;;;6.13;;
17763;SDS011;22245;52.832;13.816;2023-11-19T04:16:48;11.57;;;6.67;;
17763;SDS011;22245;52.832;13.816;2023-11-19T04:20:11;10.37;;;6.33;;
17763;SDS011;22245;52.832;13.816;2023-11-19T04:23:34;10.17;;;6.57;;
17763;SDS011;22245;52.832;13.816;2023-11-19T04:26:58;10.30;;;6.43;;
17763;SDS011;22245;52.832;13.816;2023-11-19T04:30:20;10.67;;;6.43;;
17763;SDS011;22245;52.832;13.816;2023-11-19T04:33:43;10.30;;;6.17;;
17763;SDS011;22245;52.832;13.816;2023-11-19T04:37:04;10.13;;;7.17;;
17763;SDS011;22245;52.832;13.816;2023-11-19T04:40:29;10.37;;;6.67;;
17763;SDS011;22245;52.832;13.816;2023-11-19T04:43:53;12.80;;;7.07;;
17763;SDS011;22245;52.832;13.816;2023-11-19T04:47:15;9.97;;;6.43;;
17763;SDS011;22245;52.832;13.816;2023-11-19T04:50:37;12.27;;;7.03;;
17763;SDS011;22245;52.832;13.816;2023-11-19T04:53:58;10.07;;;6.90;;
17763;SDS011;22245;52.832;13.816;2023-11-19T04:57:20;12.37;;;6.70;;
17763;SDS011;22245;52.832;13.816;2023-11-19T05:00:42;12.23;;;6.80;;
17763;SDS011;22245;52.832;13.816;2023-11-19T05:04:06;11.10;;;7.33;;
17763;SDS011;22245;52.832;13.816;2023-11-19T05:07:29;12.33;;;6.93;;
17763;SDS011;22245;52.832;13.816;2023-11-19T05:10:50;11.00;;;6.80;;
17763;SDS011;22245;52.832;13.816;2023-11-19T05:14:11;11.57;;;6.93;;
17763;SDS011;22245;52.832;13.816;2023-11-19T05:17:34;11.23;;;6.60;;
17763;SDS011;22245;52.832;13.816;2023-11-19T05:20:57;12.97;;;7.63;;
17763;SDS011;22245;52.832;13.816;2023-11-19T05:24:19;9.67;;;6.80;;
17763;SDS011;22245;52.832;13.816;2023-11-19T05:27:40;12.40;;;7.20;;
17763;SDS011;22245;52.832;13.816;2023-11-19T05:31:01;10.13;;;6.53;;
17763;SDS011;22245;52.832;13.816;2023-11-19T05:34:25;11.43;;;6.50;;
17763;SDS011;22245;52.832;13.816;2023-11-19T05:37:46;10.90;;;6.73;;
17763;SDS011;22245;52.832;13.816;2023-11-19T05:41:10;12.90;;;7.13;;
17763;SDS011;22245;52.832;13.816;2023-11-19T05:44:32;10.73;;;6.90;;
17763;SDS011;22245;52.832;13.816;2023-11-19T05:47:55;9.60;;;6.47;;
17763;SDS011;22245;52.832;13.816;2023-11-19T05:51:18;9.80;;;6.60;;
17763;SDS011;22245;52.832;13.816;2023-11-19T05:54:40;11.17;;;6.97;;
17763;SDS011;22245;52.832;13.816;2023-11-19T05:58:01;10.13;;;6.60;;
17763;SDS011;22245;52.832;13.816;2023-11-19T06:01:24;10.83;;;6.17;;
17763;SDS011;22245;52.832;13.816;2023-11-19T06:04:46;8.43;;;5.80;;
17763;SDS011;22245;52.832;13.816;2023-11-19T06:08:10;11.20;;;6.30;;
17763;SDS011;22245;52.832;13.816;2023-11-19T06:11:33;12.07;;;6.57;;
17763;SDS011;22245;52.832;13.816;2023-11-19T06:14:56;9.70;;;6.60;;
17763;SDS011;22245;52.832;13.816;2023-11-19T06:18:18;9.97;;;6.40;;
17763;SDS011;22245;52.832;13.816;2023-11-19T06:21:40;10.13;;;6.37;;
17763;SDS011;22245;52.832;13.816;2023-11-19T06:25:03;9.67;;;6.13;;
17763;SDS011;22245;52.832;13.816;2023-11-19T06:28:27;8.87;;;5.77;;
17763;SDS011;22245;52.832;13.816;2023-11-19T06:31:49;8.57;;;5.63;;
17763;SDS011;22245;52.832;13.816;2023-11-19T06:35:10;8.33;;;6.03;;
17763;SDS011;22245;52.832;13.816;2023-11-19T06:38:33;8.43;;;5.23;;
17763;SDS011;22245;52.832;13.816;2023-11-19T06:41:57;9.00;;;5.43;;
17763;SDS011;22245;52.832;13.816;2023-11-19T06:45:18;8.20;;;5.40;;
17763;SDS011;22245;52.832;13.816;2023-11-19T06:48:40;8.03;;;5.13;;
17763;SDS011;22245;52.832;13.816;2023-11-19T06:52:04;7.57;;;5.00;;
17763;SDS011;22245;52.832;13.816;2023-11-19T06:55:26;7.23;;;4.73;;
17763;SDS011;22245;52.832;13.816;2023-11-19T06:58:49;7.17;;;4.20;;
17763;SDS011;22245;52.832;13.816;2023-11-19T07:02:11;6.77;;;4.23;;
17763;SDS011;22245;52.832;13.816;2023-11-19T07:05:35;6.17;;;4.20;;
17763;SDS011;22245;52.832;13.816;2023-11-19T07:08:58;6.57;;;3.90;;
17763;SDS011;22245;52.832;13.816;2023-11-19T07:12:19;7.17;;;4.20;;
17763;SDS011;22245;52.832;13.816;2023-11-19T07:15:42;4.47;;;3.17;;
17763;SDS011;22245;52.832;13.816;2023-11-19T07:19:04;5.13;;;3.67;;
17763;SDS011;22245;52.832;13.816;2023-11-19T07:22:26;5.53;;;3.70;;
17763;SDS011;22245;52.832;13.816;2023-11-19T07:25:49;6.00;;;3.70;;
17763;SDS011;22245;52.832;13.816;2023-11-19T07:29:13;6.57;;;3.60;;
17763;SDS011;22245;52.832;13.816;2023-11-19T07:32:49;4.87;;;3.60;;
17763;SDS011;22245;52.832;13.816;2023-11-19T07:36:11;5.97;;;3.40;;
17763;SDS011;22245;52.832;13.816;2023-11-19T07:39:33;4.70;;;2.93;;
17763;SDS011;22245;52.832;13.816;2023-11-19T07:42:56;7.37;;;4.63;;
17763;SDS011;22245;52.832;13.816;2023-11-19T07:46:17;4.80;;;3.37;;
17763;SDS011;22245;52.832;13.816;2023-11-19T07:49:40;4.40;;;3.07;;
17763;SDS011;22245;52.832;13.816;2023-11-19T07:53:05;4.07;;;2.70;;
17763;SDS011;22245;52.832;13.816;2023-11-19T07:56:26;3.83;;;2.73;;
17763;SDS011;22245;52.832;13.816;2023-11-19T07:59:48;3.63;;;2.50;;
17763;SDS011;22245;52.832;13.816;2023-11-19T08:03:09;3.40;;;2.70;;
17763;SDS011;22245;52.832;13.816;2023-11-19T08:06:33;3.40;;;2.63;;
17763;SDS011;22245;52.832;13.816;2023-11-19T08:09:54;3.80;;;2.57;;
17763;SDS011;22245;52.832;13.816;2023-11-19T08:13:17;3.47;;;2.53;;
17763;SDS011;22245;52.832;13.816;2023-11-19T08:16:40;3.47;;;2.30;;
17763;SDS011;22245;52.832;13.816;2023-11-19T08:20:02;3.30;;;2.40;;
17763;SDS011;22245;52.832;13.816;2023-11-19T08:23:26;4.13;;;2.40;;
17763;SDS011;22245;52.832;13.816;2023-11-19T08:26:49;4.70;;;2.93;;
17763;SDS011;22245;52.832;13.816;2023-11-19T08:30:22;4.30;;;3.10;;
17763;SDS011;22245;52.832;13.816;2023-11-19T08:33:44;5.60;;;3.87;;
17763;SDS011;22245;52.832;13.816;2023-11-19T08:37:05;7.10;;;5.50;;
17763;SDS011;22245;52.832;13.816;2023-11-19T08:40:28;6.23;;;5.30;;
17763;SDS011;22245;52.832;13.816;2023-11-19T08:43:50;5.07;;;4.30;;
17763;SDS011;22245;52.832;13.816;2023-11-19T08:47:12;3.80;;;3.27;;
17763;SDS011;22245;52.832;13.816;2023-11-19T08:50:36;6.00;;;3.90;;
17763;SDS011;22245;52.832;13.816;2023-11-19T08:53:57;5.73;;;3.47;;
17763;SDS011;22245;52.832;13.816;2023-11-19T08:57:20;3.30;;;2.30;;
17763;SDS011;22245;52.832;13.816;2023-11-19T09:00:42;3.70;;;2.27;;
17763;SDS011;22245;52.832;13.816;2023-11-19T09:04:04;2.90;;;2.40;;
17763;SDS011;22245;52.832;13.816;2023-11-19T09:07:26;3.63;;;2.80;;
17763;SDS011;22245;52.832;13.816;2023-11-19T09:10:47;4.77;;;3.27;;
17763;SDS011;22245;52.832;13.816;2023-11-19T09:14:11;4.10;;;2.97;;
17763;SDS011;22245;52.832;13.816;2023-11-19T09:17:33;6.87;;;4.40;;
17763;SDS011;22245;52.832;13.816;2023-11-19T09:20:55;8.80;;;4.00;;
17763;SDS011;22245;52.832;13.816;2023-11-19T09:24:17;5.63;;;3.80;;
17763;SDS011;22245;52.832;13.816;2023-11-19T09:27:38;9.80;;;5.23;;
17763;SDS011;22245;52.832;13.816;2023-11-19T09:31:02;6.33;;;3.33;;
17763;SDS011;22245;52.832;13.816;2023-11-19T09:34:24;4.73;;;2.90;;
17763;SDS011;22245;52.832;13.816;2023-11-19T09:37:46;5.77;;;2.93;;
17763;SDS011;22245;52.832;13.816;2023-11-19T09:41:09;4.63;;;2.47;;
17763;SDS011;22245;52.832;13.816;2023-11-19T09:44:32;5.50;;;2.60;;
17763;SDS011;22245;52.832;13.816;2023-11-19T09:47:56;3.57;;;2.60;;
17763;SDS011;22245;52.832;13.816;2023-11-19T09:51:19;5.77;;;3.40;;
17763;SDS011;22245;52.832;13.816;2023-11-19T09:54:40;3.20;;;2.30;;
17763;SDS011;22245;52.832;13.816;2023-11-19T09:58:02;4.10;;;2.70;;
17763;SDS011;22245;52.832;13.816;2023-11-19T10:01:23;6.70;;;3.13;;
17763;SDS011;22245;52.832;13.816;2023-11-19T10:04:50;3.70;;;2.70;;
17763;SDS011;22245;52.832;13.816;2023-11-19T10:08:13;5.33;;;2.90;;
17763;SDS011;22245;52.832;13.816;2023-11-19T10:11:37;5.70;;;3.10;;
17763;SDS011;22245;52.832;13.816;2023-11-19T10:14:59;4.90;;;3.43;;
17763;SDS011;22245;52.832;13.816;2023-11-19T10:18:23;3.40;;;2.70;;
17763;SDS011;22245;52.832;13.816;2023-11-19T10:21:46;5.53;;;3.60;;
17763;SDS011;22245;52.832;13.816;2023-11-19T10:25:20;4.20;;;3.30;;
17763;SDS011;22245;52.832;13.816;2023-11-19T10:28:43;3.93;;;3.00;;
17763;SDS011;22245;52.832;13.816;2023-11-19T10:32:06;4.30;;;3.30;;
17763;SDS011;22245;52.832;13.816;2023-11-19T10:35:55;5.33;;;3.87;;
17763;SDS011;22245;52.832;13.816;2023-11-19T10:39:23;5.07;;;3.47;;
17763;SDS011;22245;52.832;13.816;2023-11-19T10:42:44;6.13;;;3.80;;
17763;SDS011;22245;52.832;13.816;2023-11-19T10:46:08;6.47;;;4.30;;
17763;SDS011;22245;52.832;13.816;2023-11-19T10:49:32;5.80;;;3.73;;
17763;SDS011;22245;52.832;13.816;2023-11-19T10:52:55;6.67;;;4.00;;
17763;SDS011;22245;52.832;13.816;2023-11-19T10:56:20;5.13;;;3.77;;
17763;SDS011;22245;52.832;13.816;2023-11-19T10:59:46;7.33;;;3.57;;
17763;SDS011;22245;52.832;13.816;2023-11-19T11:03:11;7.83;;;4.10;;
17763;SDS011;22245;52.832;13.816;2023-11-19T11:06:37;7.13;;;3.80;;
17763;SDS011;22245;52.832;13.816;2023-11-19T11:09:59;6.63;;;3.93;;
17763;SDS011;22245;52.832;13.816;2023-11-19T11:13:24;8.77;;;3.90;;
17763;SDS011;22245;52.832;13.816;2023-11-19T11:16:49;8.00;;;4.60;;
17763;SDS011;22245;52.832;13.816;2023-11-19T11:20:11;9.37;;;4.20;;
17763;SDS011;22245;52.832;13.816;2023-11-19T11:23:37;7.93;;;4.47;;
17763;SDS011;22245;52.832;13.816;2023-11-19T11:27:25;11.97;;;4.77;;
17763;SDS011;22245;52.832;13.816;2023-11-19T11:31:23;14.13;;;4.50;;
17763;SDS011;22245;52.832;13.816;2023-11-19T11:35:08;9.10;;;4.07;;
17763;SDS011;22245;52.832;13.816;2023-11-19T11:38:40;10.23;;;4.13;;
17763;SDS011;22245;52.832;13.816;2023-11-19T11:42:30;8.50;;;4.27;;
17763;SDS011;22245;52.832;13.816;2023-11-19T11:45:53;9.47;;;4.03;;
17763;SDS011;22245;52.832;13.816;2023-11-19T11:49:17;7.93;;;3.70;;
17763;SDS011;22245;52.832;13.816;2023-11-19T11:56:36;8.63;;;3.43;;
17763;SDS011;22245;52.832;13.816;2023-11-19T12:00:01;7.57;;;3.40;;
17763;SDS011;22245;52.832;13.816;2023-11-19T12:03:27;11.67;;;4.20;;
17763;SDS011;22245;52.832;13.816;2023-11-19T12:07:03;11.30;;;4.53;;
17763;SDS011;22245;52.832;13.816;2023-11-19T12:10:26;13.02;;;4.68;;
17763;SDS011;22245;52.832;13.816;2023-11-19T12:13:53;10.52;;;5.00;;
17763;SDS011;22245;52.832;13.816;2023-11-19T12:21:05;11.23;;;4.23;;
17763;SDS011;22245;52.832;13.816;2023-11-19T12:24:31;14.43;;;4.10;;
17763;SDS011;22245;52.832;13.816;2023-11-19T12:27:53;20.70;;;4.60;;
17763;SDS011;22245;52.832;13.816;2023-11-19T12:31:15;12.40;;;4.05;;
17763;SDS011;22245;52.832;13.816;2023-11-19T12:34:37;14.20;;;3.90;;
17763;SDS011;22245;52.832;13.816;2023-11-19T12:37:59;12.65;;;3.50;;
17763;SDS011;22245;52.832;13.816;2023-11-19T12:41:22;14.20;;;4.18;;
17763;SDS011;22245;52.832;13.816;2023-11-19T12:44:53;11.65;;;3.88;;
17763;SDS011;22245;52.832;13.816;2023-11-19T12:48:16;14.15;;;4.50;;
17763;SDS011;22245;52.832;13.816;2023-11-19T12:51:37;18.05;;;4.10;;
17763;SDS011;22245;52.832;13.816;2023-11-19T12:54:59;15.05;;;4.18;;
17763;SDS011;22245;52.832;13.816;2023-11-19T12:58:29;18.50;;;4.38;;
17763;SDS011;22245;52.832;13.816;2023-11-19T13:01:55;15.40;;;3.40;;
17763;SDS011;22245;52.832;13.816;2023-11-19T13:05:27;11.15;;;3.53;;
17763;SDS011;22245;52.832;13.816;2023-11-19T13:08:50;18.70;;;4.60;;
17763;SDS011;22245;52.832;13.816;2023-11-19T13:12:15;16.73;;;4.47;;
17763;SDS011;22245;52.832;13.816;2023-11-19T13:15:38;12.07;;;3.33;;
17763;SDS011;22245;52.832;13.816;2023-11-19T13:19:00;13.73;;;3.60;;
17763;SDS011;22245;52.832;13.816;2023-11-19T13:22:22;12.88;;;3.47;;
17763;SDS011;22245;52.832;13.816;2023-11-19T13:25:44;21.63;;;4.18;;
17763;SDS011;22245;52.832;13.816;2023-11-19T13:29:06;10.65;;;3.10;;
17763;SDS011;22245;52.832;13.816;2023-11-19T13:32:29;13.88;;;3.67;;
17763;SDS011;22245;52.832;13.816;2023-11-19T13:35:51;14.60;;;3.00;;
17763;SDS011;22245;52.832;13.816;2023-11-19T13:39:13;19.45;;;3.90;;
17763;SDS011;22245;52.832;13.816;2023-11-19T13:42:43;15.18;;;3.67;;
17763;SDS011;22245;52.832;13.816;2023-11-19T13:46:05;11.90;;;3.08;;
17763;SDS011;22245;52.832;13.816;2023-11-19T13:49:31;14.27;;;3.50;;
17763;SDS011;22245;52.832;13.816;2023-11-19T13:52:53;14.10;;;3.95;;
17763;SDS011;22245;52.832;13.816;2023-11-19T13:56:14;20.77;;;4.88;;
17763;SDS011;22245;52.832;13.816;2023-11-19T13:59:39;13.70;;;3.70;;
17763;SDS011;22245;52.832;13.816;2023-11-19T14:03:01;18.95;;;3.90;;
17763;SDS011;22245;52.832;13.816;2023-11-19T14:06:25;15.85;;;3.92;;
17763;SDS011;22245;52.832;13.816;2023-11-19T14:09:46;15.80;;;4.38;;
17763;SDS011;22245;52.832;13.816;2023-11-19T14:13:08;17.63;;;3.92;;
17763;SDS011;22245;52.832;13.816;2023-11-19T14:16:30;16.38;;;3.58;;
17763;SDS011;22245;52.832;13.816;2023-11-19T14:19:52;18.90;;;3.50;;
17763;SDS011;22245;52.832;13.816;2023-11-19T14:23:16;17.60;;;3.35;;
17763;SDS011;22245;52.832;13.816;2023-11-19T14:26:38;18.88;;;4.30;;
17763;SDS011;22245;52.832;13.816;2023-11-19T14:29:59;20.27;;;4.72;;
17763;SDS011;22245;52.832;13.816;2023-11-19T14:33:21;14.75;;;4.30;;
17763;SDS011;22245;52.832;13.816;2023-11-19T14:36:43;20.13;;;3.88;;
17763;SDS011;22245;52.832;13.816;2023-11-19T14:40:07;13.63;;;3.80;;
17763;SDS011;22245;52.832;13.816;2023-11-19T14:43:31;18.70;;;4.03;;
17763;SDS011;22245;52.832;13.816;2023-11-19T14:46:53;21.85;;;4.65;;
17763;SDS011;22245;52.832;13.816;2023-11-19T14:50:15;17.40;;;4.13;;
17763;SDS011;22245;52.832;13.816;2023-11-19T14:53:36;20.25;;;4.32;;
17763;SDS011;22245;52.832;13.816;2023-11-19T14:56:59;18.25;;;4.30;;
17763;SDS011;22245;52.832;13.816;2023-11-19T15:00:20;16.85;;;4.88;;
17763;SDS011;22245;52.832;13.816;2023-11-19T15:03:41;14.75;;;3.65;;
17763;SDS011;22245;52.832;13.816;2023-11-19T15:07:06;20.02;;;3.83;;
17763;SDS011;22245;52.832;13.816;2023-11-19T15:10:27;19.95;;;3.55;;
17763;SDS011;22245;52.832;13.816;2023-11-19T15:13:50;19.20;;;4.97;;
17763;SDS011;22245;52.832;13.816;2023-11-19T15:17:11;15.23;;;3.63;;
17763;SDS011;22245;52.832;13.816;2023-11-19T15:20:33;18.90;;;4.35;;
17763;SDS011;22245;52.832;13.816;2023-11-19T15:23:55;14.77;;;4.05;;
17763;SDS011;22245;52.832;13.816;2023-11-19T15:27:16;21.38;;;3.70;;
17763;SDS011;22245;52.832;13.816;2023-11-19T15:30:40;18.50;;;3.65;;
17763;SDS011;22245;52.832;13.816;2023-11-19T15:34:02;16.20;;;3.58;;
17763;SDS011;22245;52.832;13.816;2023-11-19T15:37:24;15.82;;;3.42;;
17763;SDS011;22245;52.832;13.816;2023-11-19T15:40:46;14.50;;;4.00;;
17763;SDS011;22245;52.832;13.816;2023-11-19T15:44:07;17.10;;;3.92;;
17763;SDS011;22245;52.832;13.816;2023-11-19T15:47:30;23.60;;;4.90;;
17763;SDS011;22245;52.832;13.816;2023-11-19T15:50:52;16.27;;;3.67;;
17763;SDS011;22245;52.832;13.816;2023-11-19T15:54:13;23.63;;;5.03;;
17763;SDS011;22245;52.832;13.816;2023-11-19T15:57:35;22.52;;;4.35;;
17763;SDS011;22245;52.832;13.816;2023-11-19T16:00:57;18.75;;;3.70;;
17763;SDS011;22245;52.832;13.816;2023-11-19T16:04:22;18.58;;;4.68;;
17763;SDS011;22245;52.832;13.816;2023-11-19T16:07:44;20.85;;;6.65;;
17763;SDS011;22245;52.832;13.816;2023-11-19T16:11:06;23.80;;;6.33;;
17763;SDS011;22245;52.832;13.816;2023-11-19T16:14:29;16.33;;;4.60;;
17763;SDS011;22245;52.832;13.816;2023-11-19T16:17:51;20.70;;;4.35;;
17763;SDS011;22245;52.832;13.816;2023-11-19T16:21:15;19.58;;;4.72;;
17763;SDS011;22245;52.832;13.816;2023-11-19T16:24:38;20.70;;;3.97;;
17763;SDS011;22245;52.832;13.816;2023-11-19T16:28:00;18.85;;;4.13;;
17763;SDS011;22245;52.832;13.816;2023-11-19T16:31:21;17.90;;;4.03;;
17763;SDS011;22245;52.832;13.816;2023-11-19T16:34:43;28.15;;;4.25;;
17763;SDS011;22245;52.832;13.816;2023-11-19T16:38:09;18.40;;;4.30;;
17763;SDS011;22245;52.832;13.816;2023-11-19T16:41:31;19.33;;;3.63;;
17763;SDS011;22245;52.832;13.816;2023-11-19T16:45:01;21.80;;;4.68;;
17763;SDS011;22245;52.832;13.816;2023-11-19T16:48:23;23.08;;;4.10;;
17763;SDS011;22245;52.832;13.816;2023-11-19T16:51:45;17.65;;;4.65;;
17763;SDS011;22245;52.832;13.816;2023-11-19T16:55:08;16.63;;;3.65;;
17763;SDS011;22245;52.832;13.816;2023-11-19T16:58:32;16.20;;;4.05;;
17763;SDS011;22245;52.832;13.816;2023-11-19T17:01:53;21.52;;;5.15;;
17763;SDS011;22245;52.832;13.816;2023-11-19T17:05:15;16.05;;;4.45;;
17763;SDS011;22245;52.832;13.816;2023-11-19T17:08:37;23.13;;;5.35;;
17763;SDS011;22245;52.832;13.816;2023-11-19T17:12:00;21.45;;;4.28;;
17763;SDS011;22245;52.832;13.816;2023-11-19T17:15:22;17.45;;;4.32;;
17763;SDS011;22245;52.832;13.816;2023-11-19T17:18:43;20.45;;;5.20;;
17763;SDS011;22245;52.832;13.816;2023-11-19T17:22:05;19.50;;;4.55;;
17763;SDS011;22245;52.832;13.816;2023-11-19T17:25:26;18.83;;;4.72;;
17763;SDS011;22245;52.832;13.816;2023-11-19T17:28:49;23.65;;;5.43;;
17763;SDS011;22245;52.832;13.816;2023-11-19T17:32:10;18.63;;;4.15;;
17763;SDS011;22245;52.832;13.816;2023-11-19T17:35:32;22.63;;;4.97;;
17763;SDS011;22245;52.832;13.816;2023-11-19T17:38:53;22.70;;;4.72;;
17763;SDS011;22245;52.832;13.816;2023-11-19T17:42:15;20.35;;;4.57;;
17763;SDS011;22245;52.832;13.816;2023-11-19T17:45:39;18.95;;;4.53;;
17763;SDS011;22245;52.832;13.816;2023-11-19T17:49:00;20.98;;;4.72;;
17763;SDS011;22245;52.832;13.816;2023-11-19T17:52:22;16.52;;;4.55;;
17763;SDS011;22245;52.832;13.816;2023-11-19T17:55:44;19.92;;;5.32;;
17763;SDS011;22245;52.832;13.816;2023-11-19T17:59:06;22.08;;;5.10;;
17763;SDS011;22245;52.832;13.816;2023-11-19T18:02:29;28.33;;;4.55;;
17763;SDS011;22245;52.832;13.816;2023-11-19T18:05:53;21.00;;;5.30;;
17763;SDS011;22245;52.832;13.816;2023-11-19T18:09:16;28.17;;;5.70;;
17763;SDS011;22245;52.832;13.816;2023-11-19T18:12:37;23.77;;;4.72;;
17763;SDS011;22245;52.832;13.816;2023-11-19T18:15:59;24.30;;;5.47;;
17763;SDS011;22245;52.832;13.816;2023-11-19T18:19:23;20.10;;;5.45;;
17763;SDS011;22245;52.832;13.816;2023-11-19T18:22:45;23.30;;;5.07;;
17763;SDS011;22245;52.832;13.816;2023-11-19T18:26:08;22.20;;;5.25;;
17763;SDS011;22245;52.832;13.816;2023-11-19T18:29:30;24.05;;;5.70;;
17763;SDS011;22245;52.832;13.816;2023-11-19T18:32:51;13.98;;;4.22;;
17763;SDS011;22245;52.832;13.816;2023-11-19T18:36:16;16.70;;;4.38;;
17763;SDS011;22245;52.832;13.816;2023-11-19T18:39:39;16.47;;;4.03;;
17763;SDS011;22245;52.832;13.816;2023-11-19T18:43:01;17.63;;;4.07;;
17763;SDS011;22245;52.832;13.816;2023-11-19T18:46:24;16.90;;;4.20;;
17763;SDS011;22245;52.832;13.816;2023-11-19T18:49:46;15.73;;;3.95;;
17763;SDS011;22245;52.832;13.816;2023-11-19T18:53:10;21.43;;;4.40;;
17763;SDS011;22245;52.832;13.816;2023-11-19T18:56:31;15.52;;;3.97;;
17763;SDS011;22245;52.832;13.816;2023-11-19T18:59:53;17.98;;;4.07;;
17763;SDS011;22245;52.832;13.816;2023-11-19T19:03:14;15.55;;;3.28;;
17763;SDS011;22245;52.832;13.816;2023-11-19T19:06:40;14.00;;;3.50;;
17763;SDS011;22245;52.832;13.816;2023-11-19T19:10:03;12.35;;;3.35;;
17763;SDS011;22245;52.832;13.816;2023-11-19T19:13:26;14.30;;;3.83;;
17763;SDS011;22245;52.832;13.816;2023-11-19T19:16:47;12.90;;;3.40;;
17763;SDS011;22245;52.832;13.816;2023-11-19T19:20:09;11.00;;;3.03;;
17763;SDS011;22245;52.832;13.816;2023-11-19T19:23:32;13.02;;;3.45;;
17763;SDS011;22245;52.832;13.816;2023-11-19T19:26:55;14.32;;;4.15;;
17763;SDS011;22245;52.832;13.816;2023-11-19T19:30:17;10.57;;;3.17;;
17763;SDS011;22245;52.832;13.816;2023-11-19T19:33:39;14.30;;;3.23;;
17763;SDS011;22245;52.832;13.816;2023-11-19T19:37:00;18.50;;;4.13;;
17763;SDS011;22245;52.832;13.816;2023-11-19T19:40:22;12.07;;;3.20;;
17763;SDS011;22245;52.832;13.816;2023-11-19T19:43:48;10.53;;;2.80;;
17763;SDS011;22245;52.832;13.816;2023-11-19T19:47:09;15.23;;;2.90;;
17763;SDS011;22245;52.832;13.816;2023-11-19T19:50:31;11.97;;;3.30;;
17763;SDS011;22245;52.832;13.816;2023-11-19T19:53:53;16.60;;;4.20;;
17763;SDS011;22245;52.832;13.816;2023-11-19T19:57:15;13.67;;;3.00;;
17763;SDS011;22245;52.832;13.816;2023-11-19T20:00:38;19.10;;;4.10;;
17763;SDS011;22245;52.832;13.816;2023-11-19T20:03:59;11.18;;;3.17;;